Time;durP1;ratioP1;P1;durP2;ratioP2;P2;SDS_P1;SDS_P2;PMS_P1;PMS_P2;Temp;Humidity;BMP_temperature;BMP_pressure;BME280_temperature;BME280_humidity;BME280_pressure;Samples;Min_cycle;Max_cycle;Signal;HPM_P1;HPM_P2
2023/09/01 00:01:33;;;;;;;7.83;2.43;;;16.90;1.00;;;;;;5009938;28;20905;-73
2023/09/01 00:03:58;;;;;;;8.37;2.87;;;16.90;1.00;;;;;;5009329;28;20810;-74
2023/09/01 00:06:24;;;;;;;9.85;2.50;;;16.90;1.00;;;;;;5007811;28;20781;-73
2023/09/01 00:08:49;;;;;;;10.07;2.80;;;16.90;1.00;;;;;;5011283;28;20389;-73
2023/09/01 00:11:15;;;;;;;8.67;2.60;;;17.00;1.00;;;;;;4998657;28;20401;-74
2023/09/01 00:13:41;;;;;;;9.55;2.80;;;17.00;1.00;;;;;;5018606;28;20396;-74
2023/09/01 00:16:08;;;;;;;8.10;2.83;;;17.00;1.00;;;;;;5020663;28;20392;-73
2023/09/01 00:18:34;;;;;;;8.60;2.65;;;17.00;1.00;;;;;;5017883;28;20392;-74
2023/09/01 00:21:06;;;;;;;10.20;3.57;;;17.10;1.00;;;;;;5021255;28;20411;-74
2023/09/01 00:23:32;;;;;;;7.57;2.50;;;17.10;1.00;;;;;;5000274;28;20397;-74
2023/09/01 00:25:59;;;;;;;6.57;2.13;;;17.00;1.00;;;;;;5018761;28;20389;-74
2023/09/01 00:28:26;;;;;;;11.38;2.53;;;17.10;1.00;;;;;;5022561;28;20400;-75
2023/09/01 00:30:55;;;;;;;8.05;2.50;;;17.00;1.00;;;;;;5021557;28;20492;-75
2023/09/01 00:33:27;;;;;;;7.90;2.60;;;17.10;1.00;;;;;;5019875;28;20407;-74
2023/09/01 00:35:55;;;;;;;7.20;2.15;;;17.10;1.00;;;;;;5023024;28;20388;-73
2023/09/01 00:38:21;;;;;;;7.43;2.20;;;17.20;1.00;;;;;;5021186;28;20424;-73
2023/09/01 00:40:49;;;;;;;7.07;2.03;;;17.30;1.00;;;;;;5019461;28;20399;-73
2023/09/01 00:43:15;;;;;;;5.57;2.08;;;17.30;1.00;;;;;;5019628;28;20412;-73
2023/09/01 00:45:41;;;;;;;7.70;2.10;;;17.20;1.00;;;;;;5003283;28;20408;-74
2023/09/01 00:48:10;;;;;;;7.00;2.60;;;17.10;1.00;;;;;;5020977;28;20447;-74
2023/09/01 00:50:38;;;;;;;6.68;2.00;;;17.10;1.00;;;;;;5022347;28;20405;-74
2023/09/01 00:53:05;;;;;;;7.70;2.00;;;17.10;1.00;;;;;;5021560;28;20844;-74
2023/09/01 00:55:33;;;;;;;6.63;2.03;;;17.10;1.00;;;;;;5021169;28;20420;-75
2023/09/01 00:58:02;;;;;;;5.30;1.60;;;17.20;1.00;;;;;;5022645;28;20400;-74
2023/09/01 01:00:31;;;;;;;7.95;1.77;;;17.10;1.00;;;;;;5018832;28;20424;-74
2023/09/01 01:02:58;;;;;;;6.07;1.90;;;17.10;1.00;;;;;;5015634;28;20761;-75
2023/09/01 01:05:40;;;;;;;8.38;2.30;;;17.10;1.00;;;;;;5016013;28;20385;-74
2023/09/01 01:08:17;;;;;;;5.47;1.80;;;17.10;1.00;;;;;;5014639;28;20754;-74
2023/09/01 01:11:09;;;;;;;5.70;1.80;;;17.10;1.00;;;;;;5000843;28;20508;-74
2023/09/01 01:13:39;;;;;;;7.65;1.90;;;17.10;1.00;;;;;;5017424;28;20409;-73
2023/09/01 01:16:06;;;;;;;11.10;1.80;;;17.10;1.00;;;;;;5012734;28;20389;-74
2023/09/01 01:18:35;;;;;;;6.18;1.98;;;17.10;1.00;;;;;;5012705;28;20793;-74
2023/09/01 01:21:16;;;;;;;5.47;1.40;;;17.20;1.00;;;;;;5011770;28;20392;-74
2023/09/01 01:23:42;;;;;;;6.13;1.80;;;17.20;1.00;;;;;;5012687;28;20400;-74
2023/09/01 01:26:14;;;;;;;5.70;1.77;;;17.30;99.90;;;;;;5014623;28;20393;-74
2023/09/01 01:28:39;;;;;;;6.20;1.60;;;17.30;99.90;;;;;;5012290;28;20397;-74
2023/09/01 01:31:05;;;;;;;5.63;1.73;;;17.30;99.90;;;;;;5011770;28;20800;-74
2023/09/01 01:33:54;;;;;;;5.50;1.70;;;17.20;99.90;;;;;;5011171;28;20822;-74
2023/09/01 01:36:36;;;;;;;6.70;1.60;;;17.20;99.90;;;;;;5012206;28;20393;-74
2023/09/01 01:39:06;;;;;;;5.40;1.50;;;17.10;99.90;;;;;;5015649;28;20475;-74
2023/09/01 01:41:42;;;;;;;4.70;1.30;;;17.10;1.00;;;;;;5011413;28;20814;-74
2023/09/01 01:44:10;;;;;;;7.40;1.43;;;17.20;99.90;;;;;;5011267;28;20397;-74
2023/09/01 01:46:36;;;;;;;5.38;1.67;;;17.10;99.90;;;;;;5011231;28;20917;-74
2023/09/01 01:49:08;;;;;;;4.70;1.20;;;17.10;1.00;;;;;;5010110;28;20384;-74
2023/09/01 01:51:34;;;;;;;6.47;1.60;;;17.10;1.00;;;;;;5011937;28;20507;-74
2023/09/01 01:53:59;;;;;;;5.18;1.50;;;17.10;1.00;;;;;;5010845;28;20397;-74
2023/09/01 01:56:26;;;;;;;5.37;1.60;;;17.20;1.00;;;;;;5011486;28;20431;-74
2023/09/01 01:58:51;;;;;;;6.30;1.50;;;17.30;1.00;;;;;;5012208;28;20401;-74
2023/09/01 02:01:17;;;;;;;5.30;1.40;;;17.20;99.90;;;;;;5011545;28;20446;-74
2023/09/01 02:03:42;;;;;;;6.40;1.50;;;17.20;1.00;;;;;;5010600;28;20446;-74
2023/09/01 02:06:08;;;;;;;6.63;1.40;;;17.20;1.00;;;;;;4993273;28;20397;-74
2023/09/01 02:08:33;;;;;;;5.30;1.65;;;17.30;1.00;;;;;;5010077;28;20400;-74
2023/09/01 02:10:59;;;;;;;6.30;1.43;;;17.20;1.00;;;;;;5010729;28;20867;-74
2023/09/01 02:13:24;;;;;;;6.43;1.83;;;17.20;1.00;;;;;;5010807;28;20403;-74
2023/09/01 02:15:51;;;;;;;5.50;1.20;;;17.20;1.00;;;;;;5011321;28;20392;-74
2023/09/01 02:18:18;;;;;;;5.32;1.42;;;17.20;1.00;;;;;;5010356;28;20405;-74
2023/09/01 02:20:43;;;;;;;6.13;1.40;;;17.40;1.00;;;;;;5010716;28;20385;-74
2023/09/01 02:23:09;;;;;;;6.70;1.70;;;17.40;1.00;;;;;;5010495;28;20444;-74
2023/09/01 02:25:37;;;;;;;8.57;2.00;;;17.30;1.00;;;;;;5009952;28;20385;-74
2023/09/01 02:28:04;;;;;;;7.00;1.70;;;17.20;1.00;;;;;;5010089;28;20399;-74
2023/09/01 02:30:30;;;;;;;6.35;1.40;;;17.20;1.00;;;;;;5010272;28;20452;-74
2023/09/01 02:32:56;;;;;;;5.00;1.42;;;17.20;1.00;;;;;;5010200;28;20908;-74
2023/09/01 02:35:22;;;;;;;7.80;1.50;;;17.20;1.00;;;;;;5010359;28;20480;-74
2023/09/01 02:37:49;;;;;;;7.15;1.88;;;17.20;1.00;;;;;;5011881;28;20384;-74
2023/09/01 02:40:15;;;;;;;5.90;1.60;;;17.30;1.00;;;;;;5010065;28;20424;-74
2023/09/01 02:42:41;;;;;;;5.25;1.23;;;17.30;1.00;;;;;;5009476;28;20471;-74
2023/09/01 02:45:11;;;;;;;5.80;1.30;;;17.30;1.00;;;;;;5009435;28;20896;-74
2023/09/01 02:47:36;;;;;;;9.00;1.50;;;17.30;1.00;;;;;;5009493;28;20396;-74
2023/09/01 02:50:04;;;;;;;5.30;1.40;;;17.40;1.00;;;;;;5009619;28;20421;-74
2023/09/01 02:52:30;;;;;;;4.93;1.45;;;17.40;1.00;;;;;;5010388;28;20385;-74
2023/09/01 02:54:56;;;;;;;4.95;1.25;;;17.40;1.00;;;;;;5016037;28;20389;-74
2023/09/01 02:57:22;;;;;;;5.40;1.20;;;17.50;1.00;;;;;;5010444;28;20801;-74
2023/09/01 02:59:49;;;;;;;6.63;1.92;;;17.50;1.00;;;;;;5010280;28;20500;-74
2023/09/01 03:02:15;;;;;;;4.70;1.50;;;17.50;1.00;;;;;;5009674;28;20546;-74
2023/09/01 03:04:41;;;;;;;4.87;1.30;;;17.50;1.00;;;;;;5009348;28;20467;-74
2023/09/01 03:07:07;;;;;;;5.80;1.25;;;17.40;1.00;;;;;;5009945;28;20387;-74
2023/09/01 03:09:32;;;;;;;5.20;1.30;;;17.50;1.00;;;;;;5009842;28;20758;-74
2023/09/01 03:11:58;;;;;;;4.83;1.50;;;17.50;1.00;;;;;;5010629;28;20451;-74
2023/09/01 03:14:24;;;;;;;6.38;1.50;;;17.40;1.00;;;;;;5010186;28;20395;-74
2023/09/01 03:16:50;;;;;;;4.73;1.37;;;17.50;1.00;;;;;;5010453;28;20450;-74
2023/09/01 03:19:16;;;;;;;4.95;1.30;;;17.50;1.00;;;;;;5009766;28;20405;-74
2023/09/01 03:21:41;;;;;;;5.88;1.70;;;17.50;1.00;;;;;;5009358;28;20512;-74
2023/09/01 03:24:07;;;;;;;5.30;1.20;;;17.50;1.00;;;;;;5009771;28;20957;-74
2023/09/01 03:26:32;;;;;;;6.97;1.45;;;17.50;1.00;;;;;;5009576;28;20396;-74
2023/09/01 03:28:58;;;;;;;5.50;1.40;;;17.50;1.00;;;;;;5009226;28;20452;-74
2023/09/01 03:31:23;;;;;;;4.70;1.20;;;17.50;1.00;;;;;;5011515;28;20480;-74
2023/09/01 03:33:49;;;;;;;5.77;1.60;;;17.50;1.00;;;;;;5010513;28;20401;-74
2023/09/01 03:36:14;;;;;;;5.00;1.40;;;17.50;1.00;;;;;;5013993;28;20395;-74
2023/09/01 03:38:40;;;;;;;9.57;1.40;;;17.60;1.00;;;;;;5017651;28;20436;-74
2023/09/01 03:41:06;;;;;;;6.93;1.25;;;17.60;1.00;;;;;;5017827;28;20475;-73
2023/09/01 03:43:33;;;;;;;4.40;1.08;;;17.60;1.00;;;;;;5017499;28;20404;-73
2023/09/01 03:45:59;;;;;;;5.22;1.55;;;17.50;1.00;;;;;;5017529;28;20420;-73
2023/09/01 03:48:25;;;;;;;4.57;1.10;;;17.50;1.00;;;;;;5016700;28;20418;-73
2023/09/01 03:51:16;;;;;;;5.83;1.60;;;17.50;1.00;;;;;;5016634;28;20392;-73
2023/09/01 03:53:42;;;;;;;5.60;1.20;;;17.50;1.00;;;;;;5016418;28;20907;-74
2023/09/01 03:56:13;;;;;;;4.90;1.20;;;17.50;1.00;;;;;;5018640;28;20400;-74
2023/09/01 03:58:40;;;;;;;4.63;1.27;;;17.50;1.00;;;;;;5017483;28;20861;-74
2023/09/01 04:01:08;;;;;;;7.78;1.40;;;17.50;1.00;;;;;;5020383;28;20889;-74
2023/09/01 04:03:44;;;;;;;4.78;1.13;;;17.40;1.00;;;;;;5021377;28;20392;-74
2023/09/01 04:06:10;;;;;;;5.70;1.10;;;17.30;1.00;;;;;;5019058;28;20415;-73
2023/09/01 04:08:37;;;;;;;5.43;1.20;;;17.30;1.00;;;;;;5016630;28;20492;-74
2023/09/01 04:11:03;;;;;;;5.07;1.10;;;17.20;1.00;;;;;;5011464;28;20428;-74
2023/09/01 04:13:32;;;;;;;4.75;1.20;;;17.20;1.00;;;;;;5012346;28;20463;-73
2023/09/01 04:15:58;;;;;;;5.90;1.30;;;17.20;1.00;;;;;;5012692;28;20548;-74
2023/09/01 04:18:24;;;;;;;5.10;1.30;;;17.20;1.00;;;;;;5013232;28;21128;-74
2023/09/01 04:20:51;;;;;;;5.70;1.40;;;17.10;1.00;;;;;;5013493;28;20388;-74
2023/09/01 04:23:16;;;;;;;4.63;1.30;;;17.10;1.00;;;;;;5013247;28;20939;-74
2023/09/01 04:25:49;;;;;;;6.40;1.50;;;17.10;1.00;;;;;;5013466;28;20401;-74
2023/09/01 04:28:15;;;;;;;5.53;1.58;;;17.10;1.00;;;;;;5012365;28;20386;-74
2023/09/01 04:30:42;;;;;;;4.70;1.20;;;17.10;1.00;;;;;;5012549;28;20393;-74
2023/09/01 04:33:08;;;;;;;5.95;1.50;;;17.00;1.00;;;;;;5012949;28;20404;-74
2023/09/01 04:35:33;;;;;;;4.68;1.02;;;17.00;1.00;;;;;;5012637;28;20385;-74
2023/09/01 04:37:59;;;;;;;5.77;1.83;;;16.90;1.00;;;;;;5012428;28;20845;-74
2023/09/01 04:40:28;;;;;;;6.50;1.10;;;16.90;1.00;;;;;;5012831;28;20405;-74
2023/09/01 04:42:54;;;;;;;7.90;1.30;;;16.90;1.00;;;;;;5012528;28;20417;-73
2023/09/01 04:45:20;;;;;;;4.72;1.30;;;16.90;1.00;;;;;;5013163;28;20527;-74
2023/09/01 04:47:45;;;;;;;5.70;1.20;;;16.90;1.00;;;;;;4996867;28;20429;-74
2023/09/01 04:50:11;;;;;;;6.27;1.40;;;16.90;1.00;;;;;;5012309;28;20417;-74
2023/09/01 04:52:36;;;;;;;4.67;1.30;;;17.00;1.00;;;;;;5012427;28;20396;-74
2023/09/01 04:55:04;;;;;;;4.93;1.10;;;17.00;1.00;;;;;;5012453;28;20443;-74
2023/09/01 04:57:30;;;;;;;5.40;1.40;;;17.10;1.00;;;;;;5011753;28;20381;-74
2023/09/01 04:59:56;;;;;;;5.60;1.40;;;17.20;1.00;;;;;;5012296;28;20403;-74
2023/09/01 05:02:22;;;;;;;5.20;1.10;;;17.10;1.00;;;;;;5014033;28;20417;-74
2023/09/01 05:04:48;;;;;;;5.13;1.20;;;17.20;1.00;;;;;;5013527;28;20416;-74
2023/09/01 05:07:14;;;;;;;4.60;1.17;;;17.20;1.00;;;;;;5012224;28;20424;-73
2023/09/01 05:09:39;;;;;;;7.90;1.50;;;17.30;1.00;;;;;;5012288;28;20458;-74
2023/09/01 05:12:05;;;;;;;5.25;1.50;;;17.30;1.00;;;;;;4993475;28;20504;-74
2023/09/01 05:14:30;;;;;;;4.60;0.90;;;17.40;1.00;;;;;;5011877;28;20443;-74
2023/09/01 05:16:56;;;;;;;4.57;0.90;;;17.50;1.00;;;;;;5012207;28;20403;-74
2023/09/01 05:19:22;;;;;;;4.80;1.20;;;17.50;1.00;;;;;;5012003;28;20395;-74
2023/09/01 05:21:48;;;;;;;5.78;1.30;;;17.50;1.00;;;;;;5012281;28;20432;-74
2023/09/01 05:24:14;;;;;;;5.07;1.10;;;17.60;1.00;;;;;;5012066;28;20389;-74
2023/09/01 05:26:39;;;;;;;4.90;1.20;;;17.60;1.00;;;;;;5011089;28;20412;-74
2023/09/01 05:29:05;;;;;;;5.60;1.20;;;17.60;1.00;;;;;;5012728;28;20393;-74
2023/09/01 05:31:31;;;;;;;7.03;1.20;;;17.60;1.00;;;;;;5011804;28;20393;-74
2023/09/01 05:33:57;;;;;;;5.85;1.10;;;17.60;1.00;;;;;;5012782;28;20499;-74
2023/09/01 05:36:23;;;;;;;6.53;1.67;;;17.60;1.00;;;;;;5011008;28;20407;-74
2023/09/01 05:38:48;;;;;;;5.00;1.30;;;17.60;1.00;;;;;;5011201;28;20498;-74
2023/09/01 05:41:14;;;;;;;5.13;1.50;;;17.60;1.00;;;;;;5010629;28;20749;-74
2023/09/01 05:43:40;;;;;;;4.20;1.10;;;17.60;1.00;;;;;;5011154;28;20400;-74
2023/09/01 05:46:05;;;;;;;5.68;1.67;;;17.50;1.00;;;;;;5011405;28;20443;-73
2023/09/01 05:48:31;;;;;;;6.30;1.70;;;17.50;1.00;;;;;;5011133;28;20408;-73
2023/09/01 05:50:57;;;;;;;4.30;0.93;;;17.40;1.00;;;;;;5011100;28;20403;-74
2023/09/01 05:53:22;;;;;;;5.97;1.27;;;17.30;1.00;;;;;;5011331;28;20389;-73
2023/09/01 05:55:48;;;;;;;4.40;1.10;;;17.20;14.30;;;;;;5011023;28;20393;-74
2023/09/01 05:58:14;;;;;;;9.00;1.40;;;17.20;25.80;;;;;;5012637;28;20477;-74
2023/09/01 06:00:40;;;;;;;6.30;1.10;;;17.20;49.70;;;;;;5012068;28;20436;-74
2023/09/01 06:03:06;;;;;;;7.47;1.50;;;17.20;59.90;;;;;;5011841;28;20462;-74
2023/09/01 06:05:31;;;;;;;5.30;1.33;;;17.30;63.10;;;;;;5013860;28;20420;-74
2023/09/01 06:07:57;;;;;;;5.10;1.20;;;17.40;62.50;;;;;;5031133;28;20394;-74
2023/09/01 06:10:25;;;;;;;4.90;1.40;;;17.50;52.40;;;;;;5031780;28;20391;-74
2023/09/01 06:12:59;;;;;;;5.25;1.10;;;17.50;68.70;;;;;;5017196;28;22223;-74
2023/09/01 06:15:25;;;;;;;4.80;1.50;;;17.40;96.10;;;;;;5014411;28;20424;-77
2023/09/01 06:17:50;;;;;;;4.70;0.90;;;17.60;99.90;;;;;;5013581;28;20408;-77
2023/09/01 06:20:16;;;;;;;5.00;1.27;;;17.60;93.90;;;;;;5010938;28;20459;-77
2023/09/01 06:22:41;;;;;;;5.90;1.40;;;17.60;95.30;;;;;;5012245;28;20420;-77
2023/09/01 06:25:07;;;;;;;4.70;1.40;;;17.60;86.80;;;;;;5011063;28;20460;-76
2023/09/01 06:27:37;;;;;;;7.43;1.15;;;17.40;99.90;;;;;;5012066;28;20419;-76
2023/09/01 06:30:06;;;;;;;4.80;1.13;;;17.30;99.90;;;;;;5011816;28;20393;-76
2023/09/01 06:32:32;;;;;;;4.32;1.23;;;17.30;99.90;;;;;;5010706;28;20485;-73
2023/09/01 06:34:58;;;;;;;4.85;1.17;;;17.10;99.90;;;;;;5010235;28;20392;-73
2023/09/01 06:37:23;;;;;;;4.90;1.10;;;17.10;99.90;;;;;;5010536;28;20400;-73
2023/09/01 06:39:49;;;;;;;5.43;0.90;;;17.10;99.90;;;;;;5020155;28;20437;-73
2023/09/01 06:42:14;;;;;;;5.13;1.40;;;17.10;99.90;;;;;;5029956;28;20446;-73
2023/09/01 06:44:40;;;;;;;4.40;1.00;;;17.20;99.90;;;;;;5030418;28;20394;-73
2023/09/01 06:47:05;;;;;;;4.93;1.20;;;17.20;99.90;;;;;;5030687;28;20421;-73
2023/09/01 06:49:31;;;;;;;4.60;1.10;;;17.30;99.90;;;;;;5030021;28;20529;-73
2023/09/01 06:51:58;;;;;;;5.03;1.20;;;17.40;99.90;;;;;;5029489;28;20816;-73
2023/09/01 06:54:24;;;;;;;4.07;1.08;;;17.50;99.90;;;;;;5029108;28;20478;-74
2023/09/01 06:56:49;;;;;;;5.53;1.07;;;17.60;99.90;;;;;;5029907;28;20486;-73
2023/09/01 06:59:15;;;;;;;4.10;1.00;;;17.60;99.90;;;;;;5029713;28;20394;-73
2023/09/01 07:01:40;;;;;;;5.50;1.50;;;17.70;99.90;;;;;;5030436;28;20410;-73
2023/09/01 07:04:07;;;;;;;4.50;0.90;;;18.00;99.90;;;;;;5031284;28;20402;-73
2023/09/01 07:06:32;;;;;;;4.50;1.10;;;18.30;99.90;;;;;;5030475;28;20478;-73
2023/09/01 07:08:58;;;;;;;5.57;1.40;;;18.50;99.90;;;;;;5029912;28;20482;-73
2023/09/01 07:11:24;;;;;;;5.40;1.20;;;18.60;84.30;;;;;;5030298;28;20391;-74
2023/09/01 07:13:51;;;;;;;4.00;0.80;;;18.50;55.10;;;;;;5023185;28;20479;-73
2023/09/01 07:16:16;;;;;;;4.70;0.90;;;18.50;97.70;;;;;;5011829;28;20392;-73
2023/09/01 07:18:42;;;;;;;4.70;1.00;;;18.60;42.50;;;;;;5011527;28;20407;-73
2023/09/01 07:21:07;;;;;;;5.20;1.20;;;18.50;47.70;;;;;;5010845;28;20407;-73
2023/09/01 07:23:33;;;;;;;5.07;1.20;;;18.30;56.90;;;;;;5011100;28;20416;-73
2023/09/01 07:25:59;;;;;;;5.20;1.33;;;18.10;99.90;;;;;;5011311;28;20762;-73
2023/09/01 07:28:25;;;;;;;4.20;0.70;;;18.10;99.90;;;;;;5024162;28;20404;-73
2023/09/01 07:30:51;;;;;;;4.50;1.00;;;17.80;99.90;;;;;;5034516;28;20380;-73
2023/09/01 07:33:17;;;;;;;6.15;1.40;;;17.80;99.90;;;;;;5033969;28;20397;-73
2023/09/01 07:35:50;;;;;;;4.70;0.97;;;17.70;99.90;;;;;;5030368;28;20428;-73
2023/09/01 07:38:16;;;;;;;4.22;1.20;;;17.90;99.90;;;;;;5020063;28;20385;-73
2023/09/01 07:40:43;;;;;;;4.25;0.90;;;18.10;99.90;;;;;;5022883;28;20404;-73
2023/09/01 07:43:09;;;;;;;4.30;1.00;;;18.30;99.90;;;;;;5023087;28;20482;-73
2023/09/01 07:45:35;;;;;;;5.80;1.23;;;18.60;99.90;;;;;;5024388;28;20389;-73
2023/09/01 07:48:01;;;;;;;4.60;1.00;;;19.10;99.90;;;;;;5027906;28;20461;-73
2023/09/01 07:50:30;;;;;;;5.50;1.00;;;19.30;91.90;;;;;;5028878;28;20393;-73
2023/09/01 07:52:56;;;;;;;6.10;0.93;;;19.40;34.90;;;;;;5025278;28;20385;-73
2023/09/01 07:55:22;;;;;;;4.20;1.00;;;19.60;32.60;;;;;;5024113;28;20408;-73
2023/09/01 07:57:47;;;;;;;5.23;1.10;;;19.50;4.10;;;;;;5021403;28;20401;-73
2023/09/01 08:00:13;;;;;;;4.10;0.87;;;19.50;8.50;;;;;;5021102;28;20395;-73
2023/09/01 08:02:39;;;;;;;3.90;0.70;;;19.40;1.00;;;;;;5018897;28;20407;-73
2023/09/01 08:05:05;;;;;;;5.50;1.00;;;19.50;1.00;;;;;;5000308;28;20936;-73
2023/09/01 08:07:31;;;;;;;4.18;0.90;;;19.60;1.00;;;;;;5016576;28;20462;-73
2023/09/01 08:09:58;;;;;;;4.50;1.00;;;19.70;1.00;;;;;;5016107;28;21000;-74
2023/09/01 08:12:24;;;;;;;5.40;1.20;;;19.80;1.00;;;;;;5014941;28;20398;-73
2023/09/01 08:14:49;;;;;;;4.50;0.80;;;20.10;1.00;;;;;;5015674;28;20606;-73
2023/09/01 08:17:15;;;;;;;4.60;1.10;;;20.20;1.00;;;;;;5015748;28;20447;-73
2023/09/01 08:19:45;;;;;;;4.30;0.70;;;20.40;1.00;;;;;;5016031;28;20404;-74
2023/09/01 08:22:11;;;;;;;4.68;0.90;;;20.60;1.00;;;;;;5015972;28;20421;-74
2023/09/01 08:24:36;;;;;;;4.70;0.70;;;20.80;1.00;;;;;;5014957;28;20399;-74
2023/09/01 08:27:02;;;;;;;5.43;1.37;;;20.90;1.00;;;;;;5015558;28;20393;-74
2023/09/01 08:29:30;;;;;;;4.27;0.80;;;21.30;1.00;;;;;;5015892;28;20403;-74
2023/09/01 08:31:56;;;;;;;4.43;0.85;;;22.20;99.90;;;;;;5013730;28;20900;-74
2023/09/01 08:34:21;;;;;;;4.70;0.80;;;22.70;1.00;;;;;;5014784;28;20389;-74
2023/09/01 08:36:48;;;;;;;4.80;0.70;;;23.30;99.90;;;;;;5013673;28;20388;-74
2023/09/01 08:39:15;;;;;;;4.30;0.75;;;23.30;99.90;;;;;;5011982;28;20446;-74
2023/09/01 08:41:41;;;;;;;4.30;0.90;;;22.90;88.30;;;;;;5013485;28;20483;-74
2023/09/01 08:44:09;;;;;;;4.10;0.70;;;22.30;1.00;;;;;;5013213;28;21053;-74
2023/09/01 08:46:35;;;;;;;5.15;1.25;;;21.70;1.00;;;;;;4996464;28;20800;-74
2023/09/01 08:49:02;;;;;;;4.45;0.63;;;21.90;30.60;;;;;;5012531;28;20404;-74
2023/09/01 08:51:29;;;;;;;4.47;0.70;;;21.90;1.00;;;;;;5013136;28;20396;-74
2023/09/01 08:53:55;;;;;;;4.05;0.60;;;22.20;99.90;;;;;;5013478;28;20468;-74
2023/09/01 08:56:20;;;;;;;4.60;0.60;;;23.10;99.90;;;;;;5014414;28;20428;-74
2023/09/01 08:58:46;;;;;;;4.80;0.70;;;24.10;1.00;;;;;;5015468;28;20388;-75
2023/09/01 09:01:13;;;;;;;4.67;0.80;;;24.80;99.90;;;;;;5012818;28;20403;-74
2023/09/01 09:03:39;;;;;;;4.40;0.70;;;25.40;99.90;;;;;;5012154;28;20600;-74
2023/09/01 09:06:05;;;;;;;4.35;0.60;;;25.50;99.90;;;;;;5011969;28;20464;-74
2023/09/01 09:08:31;;;;;;;4.40;0.60;;;25.50;99.90;;;;;;5013218;28;20435;-75
2023/09/01 09:10:56;;;;;;;4.40;0.57;;;25.80;99.90;;;;;;5012438;28;20467;-74
2023/09/01 09:13:30;;;;;;;4.60;0.70;;;26.00;99.90;;;;;;5017294;28;20467;-74
2023/09/01 09:16:09;;;;;;;5.45;0.70;;;25.90;99.90;;;;;;5032356;28;20748;-74
2023/09/01 09:18:35;;;;;;;4.50;0.60;;;26.60;99.90;;;;;;5014458;28;20486;-74
2023/09/01 09:21:01;;;;;;;4.60;0.70;;;26.90;42.00;;;;;;5031234;28;20749;-75
2023/09/01 09:23:44;;;;;;;4.32;0.50;;;26.90;31.60;;;;;;5032146;28;20423;-74
2023/09/01 09:26:13;;;;;;;4.50;0.60;;;27.00;1.00;;;;;;5031438;28;20392;-74
2023/09/01 09:28:40;;;;;;;4.20;0.40;;;26.30;1.00;;;;;;5033969;28;20414;-74
2023/09/01 09:31:06;;;;;;;5.10;0.63;;;26.40;1.00;;;;;;5037548;28;20465;-75
2023/09/01 09:33:38;;;;;;;4.30;0.60;;;26.20;1.00;;;;;;5031336;28;20806;-75
2023/09/01 09:36:04;;;;;;;4.20;0.50;;;26.30;1.00;;;;;;5032293;28;20421;-75
2023/09/01 09:38:42;;;;;;;4.20;0.40;;;26.50;1.00;;;;;;5031993;28;20454;-75
2023/09/01 09:41:08;;;;;;;4.70;0.47;;;26.90;1.00;;;;;;5032673;28;20482;-75
2023/09/01 09:43:47;;;;;;;4.30;0.33;;;27.20;1.00;;;;;;5031191;28;20501;-75
2023/09/01 09:46:14;;;;;;;4.40;0.60;;;26.60;1.00;;;;;;5031486;28;20430;-73
2023/09/01 09:48:40;;;;;;;4.30;0.50;;;25.30;1.00;;;;;;5032624;28;20387;-73
2023/09/01 09:51:07;;;;;;;4.30;0.52;;;24.30;17.10;;;;;;5032444;28;20791;-74
2023/09/01 09:53:36;;;;;;;4.28;0.47;;;23.80;1.00;;;;;;5032094;28;20887;-74
2023/09/01 09:56:30;;;;;;;4.20;0.40;;;23.40;1.00;;;;;;5013635;28;20419;-74
2023/09/01 09:58:57;;;;;;;4.40;0.50;;;22.90;1.00;;;;;;5031838;28;20399;-74
2023/09/01 10:01:26;;;;;;;11.40;0.60;;;22.60;99.90;;;;;;5030218;28;20537;-75
2023/09/01 10:03:53;;;;;;;4.40;0.60;;;22.40;99.90;;;;;;5030721;28;20391;-74
2023/09/01 10:06:20;;;;;;;4.20;0.60;;;22.10;1.00;;;;;;5031526;28;20481;-74
2023/09/01 10:08:47;;;;;;;4.43;0.70;;;21.90;1.00;;;;;;5031617;28;20398;-74
2023/09/01 10:11:14;;;;;;;5.40;0.90;;;21.80;1.00;;;;;;5030468;28;20501;-74
2023/09/01 10:13:43;;;;;;;4.30;0.70;;;21.70;99.90;;;;;;5023347;28;20407;-74
2023/09/01 10:16:08;;;;;;;4.45;0.63;;;21.70;99.90;;;;;;5010964;28;20881;-74
2023/09/01 10:18:34;;;;;;;4.13;0.60;;;21.70;99.90;;;;;;5011652;28;20440;-74
2023/09/01 10:21:00;;;;;;;5.40;0.88;;;21.70;99.90;;;;;;5011712;28;20400;-74
2023/09/01 10:23:27;;;;;;;4.63;0.77;;;21.70;1.00;;;;;;5011611;28;20427;-74
2023/09/01 10:26:11;;;;;;;4.40;0.80;;;21.60;99.90;;;;;;5011434;28;20389;-74
2023/09/01 10:28:53;;;;;;;4.60;0.87;;;21.60;99.90;;;;;;5011745;28;20393;-74
2023/09/01 10:31:23;;;;;;;4.60;1.00;;;21.90;67.60;;;;;;5011131;28;20385;-74
2023/09/01 10:34:05;;;;;;;4.60;0.80;;;21.90;1.00;;;;;;5011164;28;20393;-74
2023/09/01 10:36:31;;;;;;;4.35;0.60;;;21.90;99.90;;;;;;5010522;28;20920;-74
2023/09/01 10:39:15;;;;;;;4.50;0.70;;;22.20;99.90;;;;;;5010648;28;20417;-73
2023/09/01 10:42:02;;;;;;;4.43;0.60;;;22.50;1.00;;;;;;5010540;28;20423;-74
2023/09/01 10:44:40;;;;;;;4.45;0.80;;;22.50;99.90;;;;;;5010971;28;20428;-74
2023/09/01 10:47:31;;;;;;;4.93;0.70;;;22.60;1.00;;;;;;5010692;28;20389;-74
2023/09/01 10:49:58;;;;;;;4.70;0.80;;;22.60;47.30;;;;;;5009920;28;20475;-74
2023/09/01 10:52:24;;;;;;;4.90;0.90;;;22.80;1.00;;;;;;4992861;28;20900;-74
2023/09/01 10:55:06;;;;;;;4.67;0.90;;;22.60;1.00;;;;;;5011459;28;20405;-74
2023/09/01 10:57:47;;;;;;;5.00;0.80;;;22.70;99.90;;;;;;5010139;28;20400;-74
2023/09/01 11:00:30;;;;;;;4.70;1.10;;;22.90;99.90;;;;;;5009374;28;21124;-74
2023/09/01 11:03:30;;;;;;;5.30;0.90;;;23.10;77.30;;;;;;5010793;28;20447;-74
2023/09/01 11:06:05;;;;;;;4.50;0.80;;;23.10;1.00;;;;;;5010851;28;20409;-74
2023/09/01 11:08:32;;;;;;;4.40;0.88;;;23.20;1.00;;;;;;4992567;28;20417;-74
2023/09/01 11:11:07;;;;;;;4.80;0.80;;;23.20;99.90;;;;;;5010525;28;20411;-74
2023/09/01 11:13:33;;;;;;;5.10;1.05;;;23.30;1.00;;;;;;5010433;28;20399;-74
2023/09/01 11:16:07;;;;;;;4.73;1.10;;;23.30;99.90;;;;;;5010550;28;20393;-74
2023/09/01 11:18:33;;;;;;;4.78;0.90;;;23.20;99.90;;;;;;5009087;28;20727;-74
2023/09/01 11:21:00;;;;;;;5.25;0.90;;;23.50;1.00;;;;;;5010129;28;20400;-74
2023/09/01 11:23:27;;;;;;;5.93;1.48;;;23.50;1.00;;;;;;5010027;28;20951;-74
2023/09/01 11:26:08;;;;;;;5.75;1.20;;;23.60;1.00;;;;;;5009964;28;20715;-74
2023/09/01 11:28:35;;;;;;;5.40;1.10;;;23.90;1.00;;;;;;5009575;28;20419;-74
2023/09/01 11:31:04;;;;;;;5.00;1.00;;;24.10;1.00;;;;;;5009533;28;20472;-74
2023/09/01 11:33:36;;;;;;;5.07;0.93;;;24.30;99.90;;;;;;5009326;28;20400;-74
2023/09/01 11:36:11;;;;;;;6.10;1.10;;;24.30;99.90;;;;;;5009605;28;20476;-74
2023/09/01 11:38:37;;;;;;;5.40;0.90;;;24.50;99.90;;;;;;5009060;28;20419;-74
2023/09/01 11:41:14;;;;;;;4.75;0.75;;;25.20;99.90;;;;;;5009512;28;20400;-74
2023/09/01 11:43:41;;;;;;;4.97;0.80;;;25.60;78.40;;;;;;5009143;28;20586;-74
2023/09/01 11:46:07;;;;;;;5.85;1.10;;;25.60;41.60;;;;;;5009560;28;20384;-74
2023/09/01 11:48:33;;;;;;;5.15;0.88;;;25.70;45.20;;;;;;5013139;28;20407;-74
2023/09/01 11:50:59;;;;;;;4.80;0.90;;;25.60;1.00;;;;;;5009995;28;20381;-74
2023/09/01 11:53:26;;;;;;;5.10;1.02;;;25.60;1.00;;;;;;5009049;28;20403;-74
2023/09/01 11:55:52;;;;;;;4.60;0.80;;;25.90;1.00;;;;;;5016622;28;20417;-74
2023/09/01 11:58:18;;;;;;;5.10;0.70;;;25.50;1.00;;;;;;5022630;28;20396;-74
2023/09/01 12:00:45;;;;;;;6.22;1.10;;;25.20;1.00;;;;;;5009430;28;20496;-74
2023/09/01 12:03:12;;;;;;;4.70;0.90;;;25.30;1.00;;;;;;5023504;28;20428;-74
2023/09/01 12:05:40;;;;;;;4.35;0.60;;;25.20;1.00;;;;;;5004662;28;20405;-74
2023/09/01 12:08:08;;;;;;;5.47;1.30;;;25.20;1.00;;;;;;5019352;28;20488;-74
2023/09/01 12:10:36;;;;;;;4.93;0.85;;;25.20;1.00;;;;;;5021060;28;20537;-74
2023/09/01 12:13:12;;;;;;;5.20;1.00;;;24.90;1.00;;;;;;5004184;28;20404;-74
2023/09/01 12:16:01;;;;;;;4.80;0.80;;;25.10;1.00;;;;;;5037149;28;20801;-74
2023/09/01 12:18:30;;;;;;;4.60;0.80;;;25.40;1.00;;;;;;5019574;28;20395;-74
2023/09/01 12:20:56;;;;;;;5.90;1.00;;;25.40;1.00;;;;;;5012570;28;20414;-74
2023/09/01 12:23:34;;;;;;;5.03;1.00;;;25.60;1.00;;;;;;5031116;28;20418;-74
2023/09/01 12:26:01;;;;;;;5.10;1.10;;;25.30;1.00;;;;;;5032589;28;20549;-74
2023/09/01 12:28:28;;;;;;;6.28;0.93;;;25.10;1.00;;;;;;5033606;28;20403;-74
2023/09/01 12:30:55;;;;;;;5.18;0.70;;;24.70;1.00;;;;;;5032610;28;20387;-74
2023/09/01 12:33:21;;;;;;;4.60;0.70;;;24.30;1.00;;;;;;5032606;28;20395;-74
2023/09/01 12:35:46;;;;;;;4.60;0.70;;;24.30;1.00;;;;;;5032459;28;20443;-74
2023/09/01 12:38:12;;;;;;;5.07;1.10;;;24.20;1.00;;;;;;5031826;28;20413;-74
2023/09/01 12:40:38;;;;;;;4.90;1.00;;;23.90;1.00;;;;;;5032345;28;20410;-74
2023/09/01 12:43:03;;;;;;;5.43;1.00;;;23.90;1.00;;;;;;5032082;28;20427;-74
2023/09/01 12:45:29;;;;;;;5.60;1.10;;;23.90;1.00;;;;;;5031490;28;20394;-74
2023/09/01 12:47:55;;;;;;;4.85;0.82;;;24.00;1.00;;;;;;5032408;28;20407;-74
2023/09/01 12:50:21;;;;;;;5.50;0.90;;;23.90;1.00;;;;;;5033705;28;20402;-74
2023/09/01 12:52:47;;;;;;;5.93;0.90;;;24.00;1.00;;;;;;5031787;28;20466;-74
2023/09/01 12:55:12;;;;;;;4.70;0.80;;;24.10;1.00;;;;;;5031517;28;20971;-74
2023/09/01 12:57:38;;;;;;;4.70;0.90;;;24.20;1.00;;;;;;5034542;28;20761;-74